Time;durP1;ratioP1;P1;durP2;ratioP2;P2;SDS_P1;SDS_P2;PMS_P1;PMS_P2;Temp;Humidity;BMP_temperature;BMP_pressure;BME280_temperature;BME280_humidity;BME280_pressure;Samples;Min_cycle;Max_cycle;Signal;HPM_P1;HPM_P2
2022/01/29 00:00:03;;;;;;;13.23;2.35;;;-4.40;99.90;;;;;;5074348;28;20036;-72
2022/01/29 00:02:29;;;;;;;6.35;1.80;;;-4.30;99.90;;;;;;5074095;28;20016;-72
2022/01/29 00:04:54;;;;;;;3.53;1.80;;;-4.30;99.90;;;;;;5074270;28;20028;-72
2022/01/29 00:07:20;;;;;;;3.80;1.50;;;-4.30;99.90;;;;;;5074034;28;20027;-72
2022/01/29 00:09:47;;;;;;;6.88;2.03;;;-4.40;99.90;;;;;;5074337;28;20078;-72
2022/01/29 00:12:13;;;;;;;10.20;2.78;;;-4.50;99.90;;;;;;5073872;28;20479;-72
2022/01/29 00:14:39;;;;;;;4.57;2.65;;;-4.50;99.90;;;;;;5074270;28;20070;-75
2022/01/29 00:17:04;;;;;;;4.78;2.15;;;-4.60;99.90;;;;;;5073705;28;20021;-78
2022/01/29 00:19:30;;;;;;;4.65;2.17;;;-4.60;99.90;;;;;;5073828;28;20020;-78
2022/01/29 00:21:58;;;;;;;8.50;2.22;;;-4.50;99.90;;;;;;5073912;28;20025;-77
2022/01/29 00:24:24;;;;;;;4.43;2.10;;;-4.50;99.90;;;;;;5073684;28;20024;-77
2022/01/29 00:26:51;;;;;;;5.68;2.17;;;-4.40;99.90;;;;;;5073921;28;20635;-77
2022/01/29 00:29:21;;;;;;;5.72;2.13;;;-4.40;99.90;;;;;;5072526;28;20068;-75
2022/01/29 00:31:47;;;;;;;6.32;2.03;;;-4.40;99.90;;;;;;5073889;28;20115;-75
2022/01/29 00:34:13;;;;;;;9.00;2.45;;;-4.40;99.90;;;;;;5073507;28;20108;-75
2022/01/29 00:36:39;;;;;;;3.97;2.10;;;-4.40;99.90;;;;;;5073324;28;20021;-74
2022/01/29 00:39:06;;;;;;;2.67;2.00;;;-4.30;99.90;;;;;;5073451;28;20487;-75
2022/01/29 00:41:31;;;;;;;8.52;2.00;;;-4.30;99.90;;;;;;5072059;28;20135;-75
2022/01/29 00:43:58;;;;;;;4.70;2.35;;;-4.30;99.90;;;;;;5073225;28;20103;-75
2022/01/29 00:46:23;;;;;;;4.95;1.73;;;-4.30;99.90;;;;;;5073294;28;20020;-75
2022/01/29 00:48:49;;;;;;;3.20;1.67;;;-4.30;99.90;;;;;;5073633;28;20017;-75
2022/01/29 00:51:15;;;;;;;3.38;1.50;;;-4.30;99.90;;;;;;5073212;28;20443;-75
2022/01/29 00:53:41;;;;;;;6.90;1.98;;;-4.30;99.90;;;;;;5073259;28;20056;-74
2022/01/29 00:56:09;;;;;;;3.38;1.73;;;-4.20;99.90;;;;;;5072850;28;20028;-74
2022/01/29 00:58:34;;;;;;;5.88;1.80;;;-4.20;99.90;;;;;;5073224;28;20036;-74
2022/01/29 01:01:01;;;;;;;5.00;1.75;;;-4.10;99.90;;;;;;5073032;28;20044;-73
2022/01/29 01:03:26;;;;;;;7.32;2.10;;;-4.10;99.90;;;;;;5073384;28;20021;-73
2022/01/29 01:05:52;;;;;;;5.15;1.60;;;-4.00;99.90;;;;;;5072989;28;20025;-73
2022/01/29 01:08:18;;;;;;;4.88;1.42;;;-4.00;99.90;;;;;;5072671;28;20025;-77
2022/01/29 01:10:44;;;;;;;2.60;1.27;;;-4.00;99.90;;;;;;5072925;28;20025;-78
2022/01/29 01:13:10;;;;;;;2.28;1.40;;;-3.90;99.90;;;;;;5072919;28;20052;-78
2022/01/29 01:15:35;;;;;;;2.05;1.10;;;-3.90;99.90;;;;;;5073092;28;20464;-78
2022/01/29 01:18:01;;;;;;;2.08;1.40;;;-3.80;99.90;;;;;;5072638;28;20379;-78
2022/01/29 01:20:27;;;;;;;4.20;1.45;;;-3.80;99.90;;;;;;5072740;28;20033;-78
2022/01/29 01:22:53;;;;;;;4.88;1.73;;;-3.70;99.90;;;;;;5072924;28;20395;-78
2022/01/29 01:25:19;;;;;;;1.58;1.20;;;-3.60;99.90;;;;;;5072577;28;20028;-80
2022/01/29 01:27:45;;;;;;;4.47;1.80;;;-3.60;99.90;;;;;;5066184;28;20025;-77
2022/01/29 01:30:11;;;;;;;4.50;1.80;;;-3.60;99.90;;;;;;5052512;28;20136;-78
2022/01/29 01:32:37;;;;;;;5.63;1.58;;;-3.60;99.90;;;;;;5052709;28;20393;-77
2022/01/29 01:35:17;;;;;;;6.68;1.75;;;-3.60;99.90;;;;;;5052249;28;20028;-77
2022/01/29 01:37:57;;;;;;;3.67;1.38;;;-3.50;99.90;;;;;;5052325;28;20077;-77
2022/01/29 01:40:25;;;;;;;4.03;1.35;;;-3.50;99.90;;;;;;5052424;28;20033;-77
2022/01/29 01:42:58;;;;;;;4.43;1.48;;;-3.40;99.90;;;;;;5052599;28;20029;-77
2022/01/29 01:45:23;;;;;;;2.92;1.35;;;-3.40;99.90;;;;;;5052338;28;20024;-78
2022/01/29 01:47:49;;;;;;;3.28;1.50;;;-3.30;99.90;;;;;;5052233;28;20100;-77
2022/01/29 01:50:15;;;;;;;4.22;1.30;;;-3.30;99.90;;;;;;5052101;28;20025;-77
2022/01/29 01:52:41;;;;;;;2.22;1.20;;;-3.20;99.90;;;;;;5052165;28;20029;-72
2022/01/29 01:55:07;;;;;;;2.58;0.98;;;-3.20;99.90;;;;;;5052149;28;20021;-77
2022/01/29 01:57:33;;;;;;;5.65;1.10;;;-3.20;99.90;;;;;;5052036;28;20394;-74
2022/01/29 01:59:58;;;;;;;4.13;1.35;;;-3.10;99.90;;;;;;5051956;28;20104;-75
2022/01/29 02:02:24;;;;;;;4.65;1.40;;;-3.10;99.90;;;;;;5052054;28;20040;-74
2022/01/29 02:04:50;;;;;;;1.83;1.25;;;-3.10;99.90;;;;;;5052445;28;20490;-74
2022/01/29 02:07:17;;;;;;;3.03;1.55;;;-3.10;99.90;;;;;;5051089;28;20826;-77
2022/01/29 02:09:43;;;;;;;6.97;1.60;;;-3.00;99.90;;;;;;5052339;28;20021;-74
2022/01/29 02:12:10;;;;;;;4.80;1.60;;;-3.00;99.90;;;;;;5051865;28;20487;-76
2022/01/29 02:14:38;;;;;;;2.70;1.42;;;-3.00;99.90;;;;;;5052286;28;20104;-75
2022/01/29 02:17:05;;;;;;;2.33;1.30;;;-3.00;99.90;;;;;;5052019;28;20029;-72
2022/01/29 02:19:31;;;;;;;3.78;1.25;;;-3.00;99.90;;;;;;5051818;28;20464;-75
2022/01/29 02:21:58;;;;;;;5.65;1.58;;;-3.00;99.90;;;;;;5051726;28;20078;-70
2022/01/29 02:53:29;;;;;;;2.63;1.08;;;-2.70;99.90;;;;;;5050869;28;20171;-75
2022/01/29 02:55:55;;;;;;;6.32;1.25;;;-2.70;99.90;;;;;;5051687;28;20443;-75
2022/01/29 02:58:20;;;;;;;2.65;1.58;;;-2.70;99.90;;;;;;5051223;28;20021;-75
2022/01/29 03:00:46;;;;;;;5.57;1.38;;;-2.80;99.90;;;;;;5051448;28;20066;-75
2022/01/29 03:03:12;;;;;;;2.40;1.40;;;-2.80;99.90;;;;;;5051494;28;20032;-75
2022/01/29 03:36:42;;;;;;;4.13;1.25;;;-2.80;99.90;;;;;;6043505;22;20056;-72
2022/01/29 03:39:07;;;;;;;2.58;1.23;;;-2.80;99.90;;;;;;5052639;28;20435;-71
2022/01/29 03:41:33;;;;;;;3.55;1.33;;;-2.90;99.90;;;;;;5054709;28;20171;-71
2022/01/29 03:44:04;;;;;;;1.95;1.00;;;-2.90;99.90;;;;;;5054502;28;20380;-71
2022/01/29 03:46:29;;;;;;;4.15;1.00;;;-2.90;99.90;;;;;;5054684;28;20525;-73
2022/01/29 03:48:55;;;;;;;1.98;1.17;;;-2.90;99.90;;;;;;5054407;28;20112;-71
2022/01/29 03:51:21;;;;;;;5.68;1.45;;;-2.90;99.90;;;;;;5054715;28;20095;-71
2022/01/29 03:53:47;;;;;;;4.40;1.25;;;-2.80;99.90;;;;;;5054382;28;20025;-71
2022/01/29 03:56:13;;;;;;;6.80;1.27;;;-2.80;99.90;;;;;;5054287;28;20025;-82
2022/01/29 03:58:39;;;;;;;3.88;1.10;;;-2.80;99.90;;;;;;5054546;28;20376;-76
2022/01/29 04:01:05;;;;;;;4.20;1.40;;;-2.80;99.90;;;;;;5054037;28;20041;-75
2022/01/29 04:03:32;;;;;;;2.28;1.17;;;-2.80;99.90;;;;;;5054199;28;20025;-75
2022/01/29 04:05:58;;;;;;;5.85;1.63;;;-2.80;99.90;;;;;;5054379;28;20040;-76
2022/01/29 04:08:25;;;;;;;2.85;1.38;;;-2.80;99.90;;;;;;5054407;28;20079;-76
2022/01/29 04:10:51;;;;;;;1.30;1.00;;;-2.80;99.90;;;;;;5054422;28;20139;-76
2022/01/29 04:13:21;;;;;;;4.78;1.40;;;-2.80;99.90;;;;;;5053830;28;20060;-77
2022/01/29 04:15:47;;;;;;;3.90;1.33;;;-2.70;99.90;;;;;;5054388;28;20107;-77
2022/01/29 04:18:13;;;;;;;4.95;1.42;;;-2.70;99.90;;;;;;5053793;28;20171;-76
2022/01/29 04:20:39;;;;;;;2.70;1.17;;;-2.60;99.90;;;;;;5053871;28;20037;-76
2022/01/29 04:23:08;;;;;;;3.63;1.20;;;-2.60;99.90;;;;;;5054037;28;20021;-76
2022/01/29 04:25:34;;;;;;;2.70;1.10;;;-2.60;99.90;;;;;;5053876;28;20032;-76
2022/01/29 04:28:00;;;;;;;5.15;1.55;;;-2.70;99.90;;;;;;5053842;28;20052;-77
2022/01/29 04:30:41;;;;;;;2.22;1.33;;;-2.60;99.90;;;;;;5053030;28;20025;-76
2022/01/29 04:35:38;;;;;;;2.40;1.10;;;-2.60;99.90;;;;;;5053729;28;20063;-76
2022/01/29 04:38:04;;;;;;;3.67;1.50;;;-2.60;99.90;;;;;;5053101;28;20143;-76
2022/01/29 04:40:29;;;;;;;1.20;1.10;;;-2.60;99.90;;;;;;5053469;28;20041;-78
2022/01/29 04:42:55;;;;;;;6.20;1.23;;;-2.60;99.90;;;;;;5053569;28;20032;-77
2022/01/29 04:45:21;;;;;;;5.30;1.00;;;-2.50;99.90;;;;;;5053595;28;20028;-77
2022/01/29 04:47:47;;;;;;;3.08;1.25;;;-2.50;99.90;;;;;;5053379;28;20476;-76
2022/01/29 04:50:12;;;;;;;8.15;1.30;;;-2.50;99.90;;;;;;5053463;28;20375;-77
2022/01/29 04:52:38;;;;;;;5.10;1.30;;;-2.50;99.90;;;;;;5053345;28;20776;-76
2022/01/29 04:55:04;;;;;;;4.10;1.20;;;-2.50;99.90;;;;;;5053428;28;20025;-76
2022/01/29 04:57:30;;;;;;;7.93;1.60;;;-2.50;99.90;;;;;;5053224;28;20036;-77
2022/01/29 04:59:56;;;;;;;5.95;1.55;;;-2.40;99.90;;;;;;5053281;28;20017;-77
2022/01/29 05:02:21;;;;;;;4.57;1.48;;;-2.40;99.90;;;;;;5053142;28;20074;-76
2022/01/29 05:04:47;;;;;;;2.15;1.58;;;-2.50;99.90;;;;;;5053540;28;20109;-76
2022/01/29 05:07:13;;;;;;;4.35;1.65;;;-2.50;99.90;;;;;;5051648;28;20102;-76
2022/01/29 05:09:38;;;;;;;6.93;1.90;;;-2.40;99.90;;;;;;5053078;28;20029;-76
2022/01/29 05:12:05;;;;;;;6.95;1.67;;;-2.40;99.90;;;;;;5052867;28;20032;-76
2022/01/29 05:17:17;;;;;;;3.60;1.38;;;-2.40;99.90;;;;;;5053217;28;20025;-77
2022/01/29 05:27:55;;;;;;;5.35;1.50;;;-2.30;99.90;;;;;;5052946;28;20553;-73
2022/01/29 05:30:21;;;;;;;5.50;1.42;;;-2.30;99.90;;;;;;5052435;28;20033;-74
2022/01/29 05:32:46;;;;;;;2.67;1.15;;;-2.20;99.90;;;;;;5058929;28;20052;-74
2022/01/29 05:35:12;;;;;;;8.57;1.45;;;-2.20;99.90;;;;;;5072632;28;20028;-71
2022/01/29 05:37:38;;;;;;;12.40;1.63;;;-2.20;99.90;;;;;;5072037;28;20472;-72
2022/01/29 05:40:04;;;;;;;9.50;1.00;;;-2.10;99.90;;;;;;5072148;28;20036;-70
2022/01/29 05:42:30;;;;;;;2.30;1.10;;;-0.70;99.90;;;;;;5072226;28;20382;-71
2022/01/29 05:44:55;;;;;;;5.05;1.27;;;0.30;99.90;;;;;;5071783;28;20042;-74
2022/01/29 05:47:21;;;;;;;4.60;1.50;;;0.00;99.90;;;;;;5071441;28;20399;-70
2022/01/29 05:49:47;;;;;;;5.20;1.58;;;-0.40;99.90;;;;;;5071663;28;20024;-72
2022/01/29 05:52:12;;;;;;;5.15;1.30;;;-0.80;99.90;;;;;;5071290;28;20586;-73
2022/01/29 05:54:38;;;;;;;6.47;1.45;;;-1.00;99.90;;;;;;5071892;28;20103;-72
2022/01/29 05:57:04;;;;;;;4.97;1.17;;;-1.20;99.90;;;;;;5071717;28;20502;-71
2022/01/29 05:59:34;;;;;;;4.57;1.10;;;-1.20;99.90;;;;;;5069115;28;20147;-72
2022/01/29 06:02:00;;;;;;;;;;;-1.20;99.90;;;;;;5072154;28;20067;-71
2022/01/29 06:04:26;;;;;;;7.82;1.25;;;-1.20;99.90;;;;;;5068794;28;20366;-72
2022/01/29 06:06:51;;;;;;;7.32;1.33;;;-1.30;99.90;;;;;;5067533;28;20107;-72
2022/01/29 06:09:17;;;;;;;7.22;1.52;;;-1.30;99.90;;;;;;5070722;28;20021;-71
2022/01/29 06:11:43;;;;;;;3.10;1.20;;;-1.40;99.90;;;;;;5071567;28;20028;-72
2022/01/29 06:14:09;;;;;;;3.15;1.40;;;-1.30;99.90;;;;;;5071191;28;20111;-73
2022/01/29 06:16:35;;;;;;;8.45;1.50;;;-1.30;99.90;;;;;;5070748;28;20487;-72
2022/01/29 06:19:01;;;;;;;5.20;1.27;;;-1.30;99.90;;;;;;5068814;28;20032;-72
2022/01/29 06:21:26;;;;;;;3.72;1.13;;;-1.30;99.90;;;;;;5068511;28;20068;-72
2022/01/29 06:23:52;;;;;;;5.10;1.52;;;-1.30;99.90;;;;;;5070817;28;20021;-72
2022/01/29 06:26:18;;;;;;;9.73;1.52;;;-1.30;99.90;;;;;;5071670;28;20048;-72
2022/01/29 06:28:44;;;;;;;5.93;1.25;;;-1.30;99.90;;;;;;5071857;28;20082;-72
2022/01/29 06:31:09;;;;;;;8.45;1.58;;;-1.30;99.90;;;;;;5071743;28;20071;-72
2022/01/29 06:33:35;;;;;;;4.82;1.50;;;-1.30;99.90;;;;;;5072017;28;20070;-71
2022/01/29 06:36:01;;;;;;;4.95;1.35;;;-1.30;99.90;;;;;;5072084;28;20028;-70
2022/01/29 06:38:27;;;;;;;6.10;1.20;;;-1.10;99.90;;;;;;5071367;28;20040;-70
2022/01/29 06:40:53;;;;;;;5.85;1.50;;;-1.10;99.90;;;;;;5071754;28;20036;-70
2022/01/29 06:43:19;;;;;;;5.18;1.40;;;-1.20;99.90;;;;;;5071402;28;20021;-70
2022/01/29 06:45:45;;;;;;;5.55;1.63;;;-1.20;99.90;;;;;;5071921;28;20025;-70
2022/01/29 06:48:12;;;;;;;3.42;1.20;;;-1.30;99.90;;;;;;5071741;28;20073;-70
2022/01/29 06:50:39;;;;;;;8.60;1.63;;;-1.30;99.90;;;;;;5071632;28;20547;-72
2022/01/29 06:53:05;;;;;;;5.68;1.00;;;-1.30;99.90;;;;;;5072729;28;20056;-70
2022/01/29 06:55:31;;;;;;;5.65;1.52;;;-1.30;99.90;;;;;;5075746;28;20021;-71
2022/01/29 06:57:57;;;;;;;8.80;1.35;;;-1.30;99.90;;;;;;5074042;28;20035;-73
2022/01/29 07:00:23;;;;;;;3.28;1.23;;;-1.30;99.90;;;;;;5075493;28;20036;-73
2022/01/29 07:02:49;;;;;;;4.13;1.73;;;-1.30;99.90;;;;;;5075351;28;20490;-71
2022/01/29 07:05:14;;;;;;;2.67;1.30;;;-1.30;99.90;;;;;;5075223;28;20094;-69
2022/01/29 07:07:40;;;;;;;5.15;1.75;;;-1.30;99.90;;;;;;5075271;28;20021;-70
2022/01/29 07:10:08;;;;;;;7.10;1.27;;;-1.20;99.90;;;;;;5075159;28;20534;-69
2022/01/29 07:12:37;;;;;;;5.90;1.35;;;-1.20;99.90;;;;;;5075217;28;20570;-71
2022/01/29 07:15:05;;;;;;;6.25;1.33;;;-1.20;99.90;;;;;;5075389;28;20107;-75
2022/01/29 07:17:31;;;;;;;7.38;1.45;;;-1.20;99.90;;;;;;5074732;28;20143;-72
2022/01/29 07:19:57;;;;;;;7.97;1.70;;;-0.30;99.90;;;;;;5071307;28;20111;-72
2022/01/29 07:22:22;;;;;;;3.47;1.20;;;-0.20;99.90;;;;;;5074033;28;20127;-75
2022/01/29 07:24:48;;;;;;;7.18;1.75;;;-0.40;99.90;;;;;;5070079;28;20025;-71
2022/01/29 07:27:15;;;;;;;7.18;1.55;;;-0.60;99.90;;;;;;5072828;28;20090;-75
2022/01/29 07:29:41;;;;;;;6.55;1.17;;;-0.70;99.90;;;;;;5074157;28;20055;-74
2022/01/29 07:32:07;;;;;;;4.72;1.33;;;-0.70;99.90;;;;;;5074334;28;20024;-74
2022/01/29 07:34:33;;;;;;;4.72;1.15;;;-0.80;99.90;;;;;;5073984;28;20023;-75
2022/01/29 07:36:59;;;;;;;5.95;1.60;;;-0.80;99.90;;;;;;5067519;28;20068;-74
2022/01/29 07:39:25;;;;;;;7.10;1.42;;;-0.90;99.90;;;;;;5071816;28;20082;-75
2022/01/29 07:41:52;;;;;;;9.60;2.03;;;-0.90;99.90;;;;;;5072893;28;20487;-75
2022/01/29 07:44:18;;;;;;;8.82;1.60;;;-0.90;99.90;;;;;;5072746;28;20029;-75
2022/01/29 07:46:44;;;;;;;6.03;1.40;;;-0.90;99.90;;;;;;5072870;28;20038;-71
2022/01/29 07:49:09;;;;;;;4.95;1.35;;;-0.80;99.90;;;;;;5073499;28;20055;-78
2022/01/29 07:51:36;;;;;;;5.45;1.55;;;-0.80;99.90;;;;;;5073915;28;20063;-75
2022/01/29 07:54:02;;;;;;;6.05;1.40;;;-0.80;99.90;;;;;;5074413;28;20399;-76
2022/01/29 07:56:28;;;;;;;4.68;1.42;;;-0.70;99.90;;;;;;5073833;28;20031;-82
2022/01/29 07:58:53;;;;;;;4.03;1.50;;;-0.80;99.90;;;;;;5073499;28;20724;-76
2022/01/29 08:01:19;;;;;;;3.67;1.50;;;-0.80;99.90;;;;;;5073527;28;20198;-73
2022/01/29 08:03:46;;;;;;;5.28;1.60;;;-0.80;99.90;;;;;;5071714;28;20088;-68
2022/01/29 08:06:20;;;;;;;5.28;1.45;;;-0.80;99.90;;;;;;5071446;28;20079;-68
2022/01/29 08:08:45;;;;;;;4.30;1.65;;;-0.80;99.90;;;;;;5073374;28;20471;-67
2022/01/29 08:11:12;;;;;;;4.15;1.40;;;-0.80;99.90;;;;;;5069801;28;20036;-68
2022/01/29 08:13:39;;;;;;;4.15;1.70;;;-0.70;99.90;;;;;;5072998;28;20031;-68
2022/01/29 08:16:05;;;;;;;6.32;1.70;;;-0.70;99.90;;;;;;5073425;28;20056;-68
2022/01/29 08:18:31;;;;;;;5.78;1.50;;;-0.70;99.90;;;;;;5073268;28;20046;-68
2022/01/29 08:20:57;;;;;;;9.70;1.65;;;-0.70;99.90;;;;;;5070436;28;20040;-68
2022/01/29 08:23:23;;;;;;;9.18;1.50;;;-0.60;99.90;;;;;;5057149;28;20029;-69
2022/01/29 08:25:49;;;;;;;6.60;1.50;;;-0.60;99.90;;;;;;5057638;28;20043;-68
2022/01/29 08:28:15;;;;;;;8.77;2.53;;;-0.60;99.90;;;;;;5073402;28;20021;-68
2022/01/29 08:30:42;;;;;;;9.65;1.77;;;-0.60;99.90;;;;;;5073150;28;20021;-68
2022/01/29 08:33:08;;;;;;;7.82;2.90;;;-0.60;99.90;;;;;;5071366;28;20082;-68
2022/01/29 08:35:34;;;;;;;5.43;1.42;;;-0.60;99.90;;;;;;5065581;28;20063;-67
2022/01/29 08:38:00;;;;;;;6.88;1.30;;;-0.50;99.90;;;;;;5072111;28;20052;-68
2022/01/29 08:40:26;;;;;;;6.55;2.10;;;-0.50;99.90;;;;;;5072068;28;20028;-68
2022/01/29 08:42:53;;;;;;;5.35;1.65;;;-0.50;99.90;;;;;;5069756;28;20024;-67
2022/01/29 08:45:19;;;;;;;7.63;1.85;;;-0.40;99.90;;;;;;5069084;28;20017;-67
2022/01/29 08:47:46;;;;;;;5.55;1.65;;;-0.40;99.90;;;;;;5072125;28;20025;-67
2022/01/29 08:50:13;;;;;;;5.53;1.80;;;-0.40;99.90;;;;;;5072847;28;20387;-67
2022/01/29 08:52:39;;;;;;;4.95;1.88;;;-0.40;99.90;;;;;;5071319;28;20108;-67
2022/01/29 08:55:07;;;;;;;4.82;2.03;;;-0.40;99.90;;;;;;5072216;28;20104;-68
2022/01/29 08:57:33;;;;;;;4.88;1.90;;;-0.40;99.90;;;;;;5072029;28;20099;-68
2022/01/29 09:00:00;;;;;;;5.93;1.67;;;-0.30;99.90;;;;;;5072423;28;20040;-67
2022/01/29 09:02:26;;;;;;;6.05;1.52;;;-0.30;99.90;;;;;;5072767;28;20041;-68
2022/01/29 09:04:57;;;;;;;2.88;1.30;;;-0.30;99.90;;;;;;5072108;28;20102;-68
2022/01/29 09:07:23;;;;;;;7.18;1.75;;;-0.30;99.90;;;;;;5072613;28;20111;-68
2022/01/29 09:09:49;;;;;;;7.53;1.30;;;-0.20;99.90;;;;;;5072296;28;20104;-68
2022/01/29 09:12:15;;;;;;;5.30;1.40;;;-0.20;99.90;;;;;;5072998;28;20528;-68
2022/01/29 09:14:41;;;;;;;9.90;1.63;;;-0.20;99.90;;;;;;5073100;28;20406;-68
2022/01/29 09:17:07;;;;;;;4.78;1.63;;;-0.10;99.90;;;;;;5071714;28;20544;-68
2022/01/29 09:19:32;;;;;;;3.28;1.50;;;-0.20;99.90;;;;;;5072590;28;20021;-69
2022/01/29 09:21:59;;;;;;;4.80;1.80;;;-0.20;99.90;;;;;;5072746;28;20036;-69
2022/01/29 09:24:24;;;;;;;6.07;1.50;;;-0.20;99.90;;;;;;5072850;28;20379;-69
2022/01/29 09:26:50;;;;;;;7.47;1.40;;;-0.10;99.90;;;;;;5073006;28;20025;-69
2022/01/29 09:29:16;;;;;;;2.25;1.40;;;-0.10;99.90;;;;;;5072621;28;20035;-69
2022/01/29 09:31:42;;;;;;;5.32;1.70;;;-0.10;99.90;;;;;;5072878;28;20066;-69
2022/01/29 09:34:08;;;;;;;4.75;1.58;;;-0.10;99.90;;;;;;5070857;28;20048;-69
2022/01/29 09:36:34;;;;;;;2.78;1.35;;;-0.10;99.90;;;;;;5071888;28;20087;-67
2022/01/29 09:39:00;;;;;;;5.43;1.35;;;-0.10;99.90;;;;;;5072346;28;20040;-70
2022/01/29 09:41:27;;;;;;;2.58;1.38;;;0.10;99.90;;;;;;5072142;28;20036;-70
2022/01/29 09:43:55;;;;;;;2.25;1.30;;;0.20;99.90;;;;;;5071529;28;20036;-70
2022/01/29 09:46:22;;;;;;;3.33;1.40;;;0.10;99.90;;;;;;5071053;28;20476;-70
2022/01/29 09:48:48;;;;;;;3.55;1.27;;;0.10;99.90;;;;;;5071408;28;20029;-70
2022/01/29 09:51:15;;;;;;;2.88;1.17;;;0.10;99.90;;;;;;5071366;28;20028;-74
2022/01/29 09:53:43;;;;;;;2.25;1.13;;;0.70;99.90;;;;;;5067640;28;20095;-76
2022/01/29 09:56:13;;;;;;;2.72;1.15;;;0.90;99.90;;;;;;5063258;28;20033;-72
2022/01/29 09:58:40;;;;;;;2.92;1.38;;;0.70;99.90;;;;;;5072057;28;20429;-73
2022/01/29 10:01:06;;;;;;;2.40;1.30;;;0.50;99.90;;;;;;5071290;28;20040;-73
2022/01/29 10:03:33;;;;;;;4.85;1.50;;;0.50;99.90;;;;;;5069712;28;20017;-73
2022/01/29 10:06:00;;;;;;;5.32;1.60;;;0.40;99.90;;;;;;5070898;28;20024;-73
2022/01/29 10:08:27;;;;;;;5.35;1.40;;;0.40;99.90;;;;;;5072767;28;20016;-72
2022/01/29 10:11:02;;;;;;;5.68;3.47;;;0.40;99.90;;;;;;5069982;28;20017;-73
2022/01/29 10:13:29;;;;;;;3.42;1.48;;;0.40;99.90;;;;;;5065757;28;20012;-73
2022/01/29 10:16:11;;;;;;;2.95;1.40;;;0.40;99.90;;;;;;5068459;28;20471;-74
2022/01/29 10:18:39;;;;;;;4.47;1.67;;;0.40;99.90;;;;;;5072347;28;20024;-73
2022/01/29 10:21:16;;;;;;;3.42;1.35;;;0.40;99.90;;;;;;5067232;28;20087;-73
2022/01/29 10:23:45;;;;;;;3.00;1.40;;;0.40;99.90;;;;;;5051799;28;20491;-73
2022/01/29 10:26:25;;;;;;;2.50;1.33;;;0.40;99.90;;;;;;5054987;28;20113;-76
2022/01/29 10:28:55;;;;;;;3.20;1.50;;;0.40;99.90;;;;;;5069846;28;20510;-71
2022/01/29 10:31:21;;;;;;;3.33;1.45;;;0.40;99.90;;;;;;5071188;28;20439;-70
2022/01/29 10:33:47;;;;;;;2.05;1.15;;;1.90;99.90;;;;;;5071886;28;20078;-70
2022/01/29 10:36:19;;;;;;;2.28;1.38;;;2.60;99.90;;;;;;5071863;28;20063;-70
2022/01/29 10:38:55;;;;;;;3.90;1.45;;;2.30;99.90;;;;;;5069976;28;20565;-70
2022/01/29 10:41:31;;;;;;;1.98;1.35;;;1.90;99.90;;;;;;5071481;28;20038;-70
2022/01/29 10:44:12;;;;;;;1.63;1.10;;;1.50;99.90;;;;;;5071220;28;20120;-70
2022/01/29 10:46:43;;;;;;;3.10;1.38;;;1.30;99.90;;;;;;5071423;28;20024;-70
2022/01/29 10:49:20;;;;;;;2.53;1.50;;;1.20;99.90;;;;;;5071734;28;20020;-70
2022/01/29 10:51:57;;;;;;;2.60;1.30;;;1.10;99.90;;;;;;5071995;28;20024;-70
2022/01/29 10:54:24;;;;;;;2.95;1.30;;;1.10;99.90;;;;;;5070603;28;20035;-70
2022/01/29 10:56:57;;;;;;;1.92;1.33;;;1.10;99.90;;;;;;5071902;28;20025;-70
2022/01/29 10:59:24;;;;;;;3.28;1.40;;;1.10;99.90;;;;;;5070046;28;20021;-71
2022/01/29 11:02:01;;;;;;;2.38;1.40;;;1.10;99.90;;;;;;5070158;28;20153;-70
2022/01/29 11:04:30;;;;;;;3.33;1.58;;;1.10;99.90;;;;;;5071310;28;20078;-70
2022/01/29 11:07:00;;;;;;;3.72;1.52;;;1.00;99.90;;;;;;5071017;28;20025;-70
2022/01/29 11:09:27;;;;;;;;;;;1.00;99.90;;;;;;5070555;28;20672;-70
2022/01/29 11:11:54;;;;;;;2.25;1.40;;;1.00;99.90;;;;;;5071491;28;19912;-71
2022/01/29 11:14:22;;;;;;;4.55;1.80;;;1.00;99.90;;;;;;5071310;28;20032;-71
2022/01/29 11:16:49;;;;;;;6.50;2.00;;;1.10;99.90;;;;;;5071626;28;20074;-71
2022/01/29 11:19:16;;;;;;;3.00;1.70;;;1.00;99.90;;;;;;5071205;28;20029;-71
2022/01/29 11:21:44;;;;;;;2.38;1.60;;;1.10;99.90;;;;;;5071078;28;20032;-71
2022/01/29 11:24:12;;;;;;;5.78;1.50;;;1.10;99.90;;;;;;5071176;28;20031;-71
2022/01/29 11:26:40;;;;;;;2.72;1.35;;;1.10;99.90;;;;;;5071413;28;20384;-71
2022/01/29 11:29:32;;;;;;;1.92;1.50;;;1.10;99.90;;;;;;5071510;28;20024;-71
2022/01/29 11:32:32;;;;;;;2.70;1.50;;;1.10;99.90;;;;;;5071528;28;20539;-71
2022/01/29 11:35:08;;;;;;;3.65;1.60;;;1.10;99.90;;;;;;5027851;28;20115;-71
2022/01/29 11:37:51;;;;;;;2.13;1.60;;;1.10;99.90;;;;;;5070840;28;20044;-71
2022/01/29 11:40:20;;;;;;;6.97;1.42;;;1.10;99.90;;;;;;5074035;28;20054;-71
2022/01/29 11:43:07;;;;;;;5.00;1.40;;;1.10;99.90;;;;;;5074711;28;20468;-71
2022/01/29 11:45:51;;;;;;;4.10;1.70;;;1.10;99.90;;;;;;5074473;28;20487;-71
2022/01/29 11:48:22;;;;;;;5.55;2.30;;;1.10;99.90;;;;;;5074886;28;20024;-71
2022/01/29 11:50:48;;;;;;;5.60;1.75;;;1.10;99.90;;;;;;5074456;28;20082;-71
2022/01/29 11:53:17;;;;;;;4.25;1.73;;;1.10;99.90;;;;;;5074341;28;20041;-71
2022/01/29 11:55:44;;;;;;;5.43;1.90;;;1.10;99.90;;;;;;5074320;28;20024;-71
2022/01/29 11:58:13;;;;;;;3.30;1.70;;;1.10;99.90;;;;;;5074528;28;20578;-71
2022/01/29 12:00:39;;;;;;;4.03;1.73;;;1.10;99.90;;;;;;5074369;28;20074;-71
2022/01/29 12:03:06;;;;;;;4.50;1.73;;;1.10;99.90;;;;;;5074267;28;20035;-72
2022/01/29 12:08:40;;;;;;;4.20;1.92;;;1.20;99.90;;;;;;5054259;28;20396;-72
2022/01/29 12:11:13;;;;;;;3.97;2.33;;;1.20;99.90;;;;;;5054608;28;20052;-72
2022/01/29 12:13:40;;;;;;;3.80;2.00;;;1.20;99.90;;;;;;5054141;28;20028;-72
2022/01/29 12:16:09;;;;;;;7.30;1.83;;;1.20;99.90;;;;;;5054005;28;20491;-72
2022/01/29 12:18:36;;;;;;;4.80;1.60;;;1.20;99.90;;;;;;5054316;28;20434;-72
2022/01/29 12:21:05;;;;;;;3.05;1.20;;;1.20;99.90;;;;;;5053896;28;20033;-72
2022/01/29 12:23:51;;;;;;;2.55;1.35;;;1.20;99.90;;;;;;5054092;28;20384;-72
2022/01/29 12:26:20;;;;;;;2.15;1.30;;;1.10;99.90;;;;;;5054074;28;20032;-72
2022/01/29 12:28:50;;;;;;;3.47;1.60;;;1.10;99.90;;;;;;5054103;28;20028;-72
2022/01/29 12:31:18;;;;;;;5.05;2.30;;;1.20;99.90;;;;;;5053938;28;20031;-72
2022/01/29 12:33:44;;;;;;;3.13;1.52;;;1.20;99.90;;;;;;5053677;28;20029;-72
2022/01/29 12:36:10;;;;;;;3.53;1.23;;;1.20;99.90;;;;;;5053524;28;20108;-72
2022/01/29 12:38:41;;;;;;;2.28;1.48;;;1.40;99.90;;;;;;5053267;28;20131;-72
2022/01/29 12:41:10;;;;;;;2.90;1.55;;;1.30;99.90;;;;;;5053493;28;20041;-72
2022/01/29 12:43:42;;;;;;;3.97;1.75;;;1.60;99.90;;;;;;5063426;28;20028;-72
2022/01/29 12:46:19;;;;;;;5.07;2.10;;;1.70;99.90;;;;;;5073379;28;20028;-72
2022/01/29 12:48:59;;;;;;;6.65;2.35;;;1.60;99.90;;;;;;5072030;28;20024;-71
2022/01/29 12:51:24;;;;;;;4.97;2.00;;;1.40;99.90;;;;;;5072428;28;20029;-71
2022/01/29 12:53:58;;;;;;;4.55;2.00;;;1.30;99.90;;;;;;5073265;28;20074;-71
2022/01/29 12:56:36;;;;;;;3.38;1.70;;;1.20;99.90;;;;;;5073344;28;20507;-73
2022/01/29 12:59:07;;;;;;;5.68;2.25;;;1.20;99.90;;;;;;5073242;28;20074;-75
2022/01/29 13:01:33;;;;;;;6.20;2.65;;;1.70;99.90;;;;;;5072817;28;20364;-74
2022/01/29 13:04:04;;;;;;;4.80;2.42;;;1.70;99.90;;;;;;5071522;28;20055;-72
2022/01/29 13:06:31;;;;;;;5.80;2.20;;;1.60;99.90;;;;;;5066783;28;20186;-74
2022/01/29 13:09:16;;;;;;;4.80;2.10;;;1.40;99.90;;;;;;5067345;28;20060;-72
2022/01/29 13:11:42;;;;;;;4.00;2.42;;;1.30;99.90;;;;;;5069106;28;20020;-74
2022/01/29 13:14:19;;;;;;;5.30;2.63;;;1.20;99.90;;;;;;5070506;28;20058;-73
2022/01/29 13:16:50;;;;;;;4.72;2.17;;;1.20;99.90;;;;;;5069291;28;20031;-74
2022/01/29 13:19:16;;;;;;;3.90;1.70;;;1.10;99.90;;;;;;5068615;28;20025;-73
2022/01/29 13:21:42;;;;;;;5.60;1.83;;;1.10;99.90;;;;;;5071783;28;20082;-72
2022/01/29 13:24:28;;;;;;;4.25;1.50;;;1.00;99.90;;;;;;5069363;28;20025;-72
2022/01/29 13:27:02;;;;;;;4.40;2.08;;;0.90;99.90;;;;;;5070379;28;20107;-74
2022/01/29 13:29:34;;;;;;;5.70;2.67;;;0.80;99.90;;;;;;5072503;28;20059;-74
2022/01/29 13:32:05;;;;;;;4.75;2.78;;;0.80;99.90;;;;;;5072772;28;20020;-72
2022/01/29 13:34:34;;;;;;;3.65;2.05;;;0.80;99.90;;;;;;5072672;28;20074;-72
2022/01/29 13:37:00;;;;;;;3.60;1.70;;;0.80;99.90;;;;;;5072384;28;20044;-74
2022/01/29 13:39:27;;;;;;;8.18;2.53;;;0.70;99.90;;;;;;5072361;28;20120;-74
2022/01/29 13:42:10;;;;;;;4.10;1.95;;;0.60;99.90;;;;;;5072328;28;20039;-73
2022/01/29 13:44:36;;;;;;;7.90;1.92;;;0.60;99.90;;;;;;5072198;28;20027;-74
2022/01/29 13:47:09;;;;;;;4.28;2.10;;;0.50;99.90;;;;;;5072365;28;20032;-75
2022/01/29 13:49:36;;;;;;;3.75;2.10;;;0.50;99.90;;;;;;5070817;28;20032;-74
2022/01/29 13:52:15;;;;;;;4.47;2.35;;;0.50;99.90;;;;;;5071905;28;20033;-75
2022/01/29 13:54:41;;;;;;;3.60;2.22;;;0.50;99.90;;;;;;5070430;28;20039;-74
2022/01/29 13:57:07;;;;;;;5.30;2.35;;;0.50;99.90;;;;;;5071812;28;20480;-75
2022/01/29 13:59:35;;;;;;;7.75;2.83;;;0.50;99.90;;;;;;5071280;28;20107;-73
2022/01/29 14:02:04;;;;;;;4.53;2.58;;;0.50;99.90;;;;;;5071387;28;20032;-73
2022/01/29 14:04:38;;;;;;;6.10;2.63;;;0.40;99.90;;;;;;5071747;28;20078;-72
2022/01/29 14:07:07;;;;;;;6.60;2.78;;;0.40;99.90;;;;;;5072133;28;20093;-73
2022/01/29 14:09:36;;;;;;;5.20;2.70;;;0.40;99.90;;;;;;5072097;28;20029;-73